sensor_id;sensor_type;location;lat;lon;timestamp;temperature;humidity
36450;DHT22;22475;51.390;7.180;2022-11-28T00:00:30;12.10;89.10
36450;DHT22;22475;51.390;7.180;2022-11-28T00:02:58;12.10;88.90
36450;DHT22;22475;51.390;7.180;2022-11-28T00:05:25;12.10;88.90
36450;DHT22;22475;51.390;7.180;2022-11-28T00:07:51;12.10;89.00
36450;DHT22;22475;51.390;7.180;2022-11-28T00:10:20;12.10;89.10
36450;DHT22;22475;51.390;7.180;2022-11-28T00:12:46;12.10;89.30
36450;DHT22;22475;51.390;7.180;2022-11-28T00:15:13;12.10;89.40
36450;DHT22;22475;51.390;7.180;2022-11-28T00:17:40;12.10;89.40
36450;DHT22;22475;51.390;7.180;2022-11-28T00:20:08;12.10;89.60
36450;DHT22;22475;51.390;7.180;2022-11-28T00:22:35;12.10;89.70
36450;DHT22;22475;51.390;7.180;2022-11-28T00:25:02;12.10;89.60
36450;DHT22;22475;51.390;7.180;2022-11-28T00:27:29;12.10;89.70
36450;DHT22;22475;51.390;7.180;2022-11-28T00:29:55;12.00;89.70
36450;DHT22;22475;51.390;7.180;2022-11-28T00:32:22;12.00;89.80
36450;DHT22;22475;51.390;7.180;2022-11-28T00:34:49;12.10;90.00
36450;DHT22;22475;51.390;7.180;2022-11-28T00:37:17;12.10;90.00
36450;DHT22;22475;51.390;7.180;2022-11-28T00:39:44;12.10;89.90
36450;DHT22;22475;51.390;7.180;2022-11-28T00:42:10;12.10;90.00
36450;DHT22;22475;51.390;7.180;2022-11-28T00:44:37;12.00;90.00
36450;DHT22;22475;51.390;7.180;2022-11-28T00:47:04;12.10;90.00
36450;DHT22;22475;51.390;7.180;2022-11-28T00:49:31;12.10;90.00
36450;DHT22;22475;51.390;7.180;2022-11-28T00:51:57;12.10;90.10
36450;DHT22;22475;51.390;7.180;2022-11-28T00:54:25;12.10;90.00
36450;DHT22;22475;51.390;7.180;2022-11-28T00:56:54;12.10;90.10
36450;DHT22;22475;51.390;7.180;2022-11-28T00:59:21;12.10;90.00
36450;DHT22;22475;51.390;7.180;2022-11-28T01:01:48;12.20;90.10
36450;DHT22;22475;51.390;7.180;2022-11-28T01:04:15;12.20;90.10
36450;DHT22;22475;51.390;7.180;2022-11-28T01:06:45;12.20;90.10
36450;DHT22;22475;51.390;7.180;2022-11-28T01:09:14;12.30;90.10
36450;DHT22;22475;51.390;7.180;2022-11-28T01:11:43;12.20;90.00
36450;DHT22;22475;51.390;7.180;2022-11-28T01:14:11;12.20;90.00
36450;DHT22;22475;51.390;7.180;2022-11-28T01:16:38;12.30;90.00
36450;DHT22;22475;51.390;7.180;2022-11-28T01:19:05;12.30;90.00
36450;DHT22;22475;51.390;7.180;2022-11-28T01:21:32;12.30;90.10
36450;DHT22;22475;51.390;7.180;2022-11-28T01:23:59;12.30;90.10
36450;DHT22;22475;51.390;7.180;2022-11-28T01:26:29;12.30;90.00
36450;DHT22;22475;51.390;7.180;2022-11-28T01:28:58;12.30;90.00
36450;DHT22;22475;51.390;7.180;2022-11-28T01:31:27;12.40;90.10
36450;DHT22;22475;51.390;7.180;2022-11-28T01:33:55;12.40;90.10
36450;DHT22;22475;51.390;7.180;2022-11-28T01:36:22;12.40;90.00
36450;DHT22;22475;51.390;7.180;2022-11-28T01:38:49;12.40;90.00
36450;DHT22;22475;51.390;7.180;2022-11-28T01:41:18;12.40;90.00
36450;DHT22;22475;51.390;7.180;2022-11-28T01:44:04;12.50;90.00
36450;DHT22;22475;51.390;7.180;2022-11-28T01:46:31;12.50;90.00
36450;DHT22;22475;51.390;7.180;2022-11-28T01:49:04;12.50;90.00
36450;DHT22;22475;51.390;7.180;2022-11-28T01:51:33;12.50;90.00
36450;DHT22;22475;51.390;7.180;2022-11-28T01:54:01;12.40;90.00
36450;DHT22;22475;51.390;7.180;2022-11-28T01:56:31;12.40;90.00
36450;DHT22;22475;51.390;7.180;2022-11-28T01:59:04;12.40;90.00
36450;DHT22;22475;51.390;7.180;2022-11-28T02:01:32;12.50;90.10
36450;DHT22;22475;51.390;7.180;2022-11-28T02:03:59;12.40;90.00
36450;DHT22;22475;51.390;7.180;2022-11-28T02:06:26;12.50;90.10
36450;DHT22;22475;51.390;7.180;2022-11-28T02:08:54;12.50;90.10
36450;DHT22;22475;51.390;7.180;2022-11-28T02:12:05;12.50;90.40
36450;DHT22;22475;51.390;7.180;2022-11-28T02:14:54;12.50;90.10
36450;DHT22;22475;51.390;7.180;2022-11-28T02:17:32;12.40;89.90
36450;DHT22;22475;51.390;7.180;2022-11-28T02:20:39;12.40;89.90
36450;DHT22;22475;51.390;7.180;2022-11-28T02:23:16;12.40;90.00
36450;DHT22;22475;51.390;7.180;2022-11-28T02:26:08;12.30;90.00
36450;DHT22;22475;51.390;7.180;2022-11-28T02:29:02;12.30;90.00
36450;DHT22;22475;51.390;7.180;2022-11-28T02:31:57;12.30;90.10
36450;DHT22;22475;51.390;7.180;2022-11-28T02:34:33;12.30;90.10
36450;DHT22;22475;51.390;7.180;2022-11-28T02:37:06;12.30;90.10
36450;DHT22;22475;51.390;7.180;2022-11-28T02:39:39;12.30;90.10
36450;DHT22;22475;51.390;7.180;2022-11-28T02:42:17;12.30;90.20
36450;DHT22;22475;51.390;7.180;2022-11-28T02:44:49;12.30;90.20
36450;DHT22;22475;51.390;7.180;2022-11-28T02:47:23;12.30;90.20
36450;DHT22;22475;51.390;7.180;2022-11-28T02:49:56;12.40;90.20
36450;DHT22;22475;51.390;7.180;2022-11-28T02:52:27;12.40;90.20
36450;DHT22;22475;51.390;7.180;2022-11-28T02:54:55;12.40;90.10
36450;DHT22;22475;51.390;7.180;2022-11-28T02:57:22;12.40;90.10
36450;DHT22;22475;51.390;7.180;2022-11-28T02:59:54;12.40;90.10
36450;DHT22;22475;51.390;7.180;2022-11-28T03:02:25;12.30;90.00
36450;DHT22;22475;51.390;7.180;2022-11-28T03:04:58;12.30;90.10
36450;DHT22;22475;51.390;7.180;2022-11-28T03:07:41;12.30;90.20
36450;DHT22;22475;51.390;7.180;2022-11-28T03:10:18;12.30;90.10
36450;DHT22;22475;51.390;7.180;2022-11-28T03:12:55;12.30;90.30
36450;DHT22;22475;51.390;7.180;2022-11-28T03:15:31;12.30;90.10
36450;DHT22;22475;51.390;7.180;2022-11-28T03:18:06;12.30;90.10
36450;DHT22;22475;51.390;7.180;2022-11-28T03:20:43;12.30;90.10
36450;DHT22;22475;51.390;7.180;2022-11-28T03:23:15;12.30;90.10
36450;DHT22;22475;51.390;7.180;2022-11-28T03:25:53;12.30;90.00
36450;DHT22;22475;51.390;7.180;2022-11-28T03:28:24;12.30;90.00
36450;DHT22;22475;51.390;7.180;2022-11-28T03:30:56;12.30;90.00
36450;DHT22;22475;51.390;7.180;2022-11-28T03:33:28;12.30;90.00
36450;DHT22;22475;51.390;7.180;2022-11-28T03:36:00;12.30;90.00
36450;DHT22;22475;51.390;7.180;2022-11-28T03:38:32;12.30;89.80
36450;DHT22;22475;51.390;7.180;2022-11-28T03:41:08;12.20;89.80
36450;DHT22;22475;51.390;7.180;2022-11-28T03:43:41;12.20;90.00
36450;DHT22;22475;51.390;7.180;2022-11-28T03:46:14;12.20;90.10
36450;DHT22;22475;51.390;7.180;2022-11-28T03:48:45;12.20;90.10
36450;DHT22;22475;51.390;7.180;2022-11-28T03:51:15;12.20;90.20
36450;DHT22;22475;51.390;7.180;2022-11-28T03:53:49;12.20;90.20
36450;DHT22;22475;51.390;7.180;2022-11-28T03:56:19;12.20;90.20
36450;DHT22;22475;51.390;7.180;2022-11-28T03:58:51;12.20;90.10
36450;DHT22;22475;51.390;7.180;2022-11-28T04:01:27;12.20;90.10
36450;DHT22;22475;51.390;7.180;2022-11-28T04:04:04;12.20;90.10
36450;DHT22;22475;51.390;7.180;2022-11-28T04:06:37;12.20;90.10
36450;DHT22;22475;51.390;7.180;2022-11-28T04:09:11;12.10;90.10
36450;DHT22;22475;51.390;7.180;2022-11-28T04:11:43;12.10;90.10
36450;DHT22;22475;51.390;7.180;2022-11-28T04:14:16;12.10;90.10
36450;DHT22;22475;51.390;7.180;2022-11-28T04:16:47;12.10;90.20
36450;DHT22;22475;51.390;7.180;2022-11-28T04:19:21;12.20;90.30
36450;DHT22;22475;51.390;7.180;2022-11-28T04:21:52;12.20;90.20
36450;DHT22;22475;51.390;7.180;2022-11-28T04:24:24;12.20;90.10
36450;DHT22;22475;51.390;7.180;2022-11-28T04:26:56;12.20;90.10
36450;DHT22;22475;51.390;7.180;2022-11-28T04:29:24;12.20;90.20
36450;DHT22;22475;51.390;7.180;2022-11-28T04:31:55;12.20;90.20
36450;DHT22;22475;51.390;7.180;2022-11-28T04:34:25;12.20;90.20
36450;DHT22;22475;51.390;7.180;2022-11-28T04:36:54;12.20;90.20
36450;DHT22;22475;51.390;7.180;2022-11-28T04:39:23;12.30;90.20
36450;DHT22;22475;51.390;7.180;2022-11-28T04:41:52;12.30;90.10
36450;DHT22;22475;51.390;7.180;2022-11-28T04:44:24;12.30;90.10
36450;DHT22;22475;51.390;7.180;2022-11-28T04:46:53;12.30;90.20
36450;DHT22;22475;51.390;7.180;2022-11-28T04:49:23;12.30;90.10
36450;DHT22;22475;51.390;7.180;2022-11-28T04:51:54;12.30;90.10
36450;DHT22;22475;51.390;7.180;2022-11-28T04:54:28;12.30;89.80
36450;DHT22;22475;51.390;7.180;2022-11-28T04:57:01;12.20;89.70
36450;DHT22;22475;51.390;7.180;2022-11-28T04:59:30;12.20;89.90
36450;DHT22;22475;51.390;7.180;2022-11-28T05:01:58;12.20;90.00
36450;DHT22;22475;51.390;7.180;2022-11-28T05:04:29;12.20;90.00
36450;DHT22;22475;51.390;7.180;2022-11-28T05:07:00;12.10;90.00
36450;DHT22;22475;51.390;7.180;2022-11-28T05:09:27;12.10;90.30
36450;DHT22;22475;51.390;7.180;2022-11-28T05:11:53;12.10;90.00
36450;DHT22;22475;51.390;7.180;2022-11-28T05:14:20;12.20;90.10
36450;DHT22;22475;51.390;7.180;2022-11-28T05:16:47;12.20;90.10
36450;DHT22;22475;51.390;7.180;2022-11-28T05:19:14;12.20;90.10
36450;DHT22;22475;51.390;7.180;2022-11-28T05:21:42;12.20;90.00
36450;DHT22;22475;51.390;7.180;2022-11-28T05:24:09;12.10;90.00
36450;DHT22;22475;51.390;7.180;2022-11-28T05:26:36;12.10;90.00
36450;DHT22;22475;51.390;7.180;2022-11-28T05:29:04;12.10;89.80
36450;DHT22;22475;51.390;7.180;2022-11-28T05:31:31;12.10;89.80
36450;DHT22;22475;51.390;7.180;2022-11-28T05:33:58;12.10;89.90
36450;DHT22;22475;51.390;7.180;2022-11-28T05:36:24;12.10;90.00
36450;DHT22;22475;51.390;7.180;2022-11-28T05:38:52;12.10;90.00
36450;DHT22;22475;51.390;7.180;2022-11-28T05:41:21;12.00;89.90
36450;DHT22;22475;51.390;7.180;2022-11-28T05:43:48;12.00;90.00
36450;DHT22;22475;51.390;7.180;2022-11-28T05:46:15;12.00;90.00
36450;DHT22;22475;51.390;7.180;2022-11-28T05:48:42;12.00;90.10
36450;DHT22;22475;51.390;7.180;2022-11-28T05:51:09;12.00;90.10
36450;DHT22;22475;51.390;7.180;2022-11-28T05:53:36;11.90;90.10
36450;DHT22;22475;51.390;7.180;2022-11-28T05:56:08;11.90;90.10
36450;DHT22;22475;51.390;7.180;2022-11-28T05:58:36;11.90;90.10
36450;DHT22;22475;51.390;7.180;2022-11-28T06:01:11;11.90;90.20
36450;DHT22;22475;51.390;7.180;2022-11-28T06:03:38;11.90;90.30
36450;DHT22;22475;51.390;7.180;2022-11-28T06:06:10;11.90;90.30
36450;DHT22;22475;51.390;7.180;2022-11-28T06:08:37;11.90;90.30
36450;DHT22;22475;51.390;7.180;2022-11-28T06:11:04;11.90;90.30
36450;DHT22;22475;51.390;7.180;2022-11-28T06:13:33;11.90;90.30
36450;DHT22;22475;51.390;7.180;2022-11-28T06:15:59;11.90;90.20
36450;DHT22;22475;51.390;7.180;2022-11-28T06:18:26;11.80;90.20
36450;DHT22;22475;51.390;7.180;2022-11-28T06:20:53;11.80;90.30
36450;DHT22;22475;51.390;7.180;2022-11-28T06:23:20;11.80;90.40
36450;DHT22;22475;51.390;7.180;2022-11-28T06:25:46;11.80;90.40
36450;DHT22;22475;51.390;7.180;2022-11-28T06:28:13;11.80;90.40
36450;DHT22;22475;51.390;7.180;2022-11-28T06:30:43;11.80;90.40
36450;DHT22;22475;51.390;7.180;2022-11-28T06:33:10;11.80;90.50
36450;DHT22;22475;51.390;7.180;2022-11-28T06:35:36;11.80;90.40
36450;DHT22;22475;51.390;7.180;2022-11-28T06:38:03;11.80;90.30
36450;DHT22;22475;51.390;7.180;2022-11-28T06:40:30;11.80;90.30
36450;DHT22;22475;51.390;7.180;2022-11-28T06:42:56;11.80;90.40
36450;DHT22;22475;51.390;7.180;2022-11-28T06:45:23;11.80;90.50
36450;DHT22;22475;51.390;7.180;2022-11-28T06:47:51;11.80;90.40
36450;DHT22;22475;51.390;7.180;2022-11-28T06:50:18;11.70;90.30
36450;DHT22;22475;51.390;7.180;2022-11-28T06:52:45;11.70;90.40
36450;DHT22;22475;51.390;7.180;2022-11-28T06:55:12;11.70;90.50
36450;DHT22;22475;51.390;7.180;2022-11-28T06:57:38;11.70;90.50
36450;DHT22;22475;51.390;7.180;2022-11-28T07:00:06;11.80;90.50
36450;DHT22;22475;51.390;7.180;2022-11-28T07:02:33;11.80;90.60
36450;DHT22;22475;51.390;7.180;2022-11-28T07:05:01;11.80;90.50
36450;DHT22;22475;51.390;7.180;2022-11-28T07:07:28;11.80;90.50
36450;DHT22;22475;51.390;7.180;2022-11-28T07:09:55;11.80;90.50
36450;DHT22;22475;51.390;7.180;2022-11-28T07:12:22;11.70;90.40
36450;DHT22;22475;51.390;7.180;2022-11-28T07:14:48;11.70;90.30
36450;DHT22;22475;51.390;7.180;2022-11-28T07:17:15;11.70;90.30
36450;DHT22;22475;51.390;7.180;2022-11-28T07:19:42;11.60;90.30
36450;DHT22;22475;51.390;7.180;2022-11-28T07:22:10;11.60;90.40
36450;DHT22;22475;51.390;7.180;2022-11-28T07:24:37;11.60;90.40
36450;DHT22;22475;51.390;7.180;2022-11-28T07:27:04;11.60;90.40
36450;DHT22;22475;51.390;7.180;2022-11-28T07:29:30;11.60;90.50
36450;DHT22;22475;51.390;7.180;2022-11-28T07:32:01;11.60;90.50
36450;DHT22;22475;51.390;7.180;2022-11-28T07:34:27;11.60;90.40
36450;DHT22;22475;51.390;7.180;2022-11-28T07:36:54;11.60;90.50
36450;DHT22;22475;51.390;7.180;2022-11-28T07:39:22;11.60;90.50
36450;DHT22;22475;51.390;7.180;2022-11-28T07:41:49;11.60;90.50
36450;DHT22;22475;51.390;7.180;2022-11-28T07:44:16;11.60;90.50
36450;DHT22;22475;51.390;7.180;2022-11-28T07:46:44;11.60;90.60
36450;DHT22;22475;51.390;7.180;2022-11-28T07:49:11;11.70;90.70
36450;DHT22;22475;51.390;7.180;2022-11-28T07:51:38;11.70;90.80
36450;DHT22;22475;51.390;7.180;2022-11-28T07:54:06;11.70;90.80
36450;DHT22;22475;51.390;7.180;2022-11-28T07:56:36;11.70;90.70
36450;DHT22;22475;51.390;7.180;2022-11-28T07:59:03;11.80;90.70
36450;DHT22;22475;51.390;7.180;2022-11-28T08:01:33;11.80;90.60
36450;DHT22;22475;51.390;7.180;2022-11-28T08:04:02;11.80;90.60
36450;DHT22;22475;51.390;7.180;2022-11-28T08:06:29;11.80;90.60
36450;DHT22;22475;51.390;7.180;2022-11-28T08:08:58;11.80;90.50
36450;DHT22;22475;51.390;7.180;2022-11-28T08:11:25;11.90;90.60
36450;DHT22;22475;51.390;7.180;2022-11-28T08:13:56;11.90;90.60
36450;DHT22;22475;51.390;7.180;2022-11-28T08:16:24;11.90;90.70
36450;DHT22;22475;51.390;7.180;2022-11-28T08:18:52;11.90;90.70
36450;DHT22;22475;51.390;7.180;2022-11-28T08:21:21;11.90;90.70
36450;DHT22;22475;51.390;7.180;2022-11-28T08:23:49;12.00;90.70
36450;DHT22;22475;51.390;7.180;2022-11-28T08:26:18;11.90;90.50
36450;DHT22;22475;51.390;7.180;2022-11-28T08:28:45;11.90;90.50
36450;DHT22;22475;51.390;7.180;2022-11-28T08:31:15;11.90;90.50
36450;DHT22;22475;51.390;7.180;2022-11-28T08:33:43;11.90;90.50
36450;DHT22;22475;51.390;7.180;2022-11-28T08:36:11;11.90;90.60
36450;DHT22;22475;51.390;7.180;2022-11-28T08:38:39;11.90;90.60
36450;DHT22;22475;51.390;7.180;2022-11-28T08:41:08;11.90;90.60
36450;DHT22;22475;51.390;7.180;2022-11-28T08:43:35;12.00;90.60
36450;DHT22;22475;51.390;7.180;2022-11-28T08:46:02;12.00;90.70
36450;DHT22;22475;51.390;7.180;2022-11-28T08:48:31;12.00;90.90
36450;DHT22;22475;51.390;7.180;2022-11-28T08:50:59;11.90;90.40
36450;DHT22;22475;51.390;7.180;2022-11-28T08:53:26;11.90;90.40
36450;DHT22;22475;51.390;7.180;2022-11-28T08:55:53;11.90;90.40
36450;DHT22;22475;51.390;7.180;2022-11-28T08:58:20;11.90;90.50
36450;DHT22;22475;51.390;7.180;2022-11-28T09:00:47;12.00;90.60
36450;DHT22;22475;51.390;7.180;2022-11-28T09:03:15;12.00;90.70
36450;DHT22;22475;51.390;7.180;2022-11-28T09:05:44;12.00;90.70
36450;DHT22;22475;51.390;7.180;2022-11-28T09:08:12;12.00;90.60
36450;DHT22;22475;51.390;7.180;2022-11-28T09:10:40;12.00;90.60
36450;DHT22;22475;51.390;7.180;2022-11-28T09:13:08;12.10;90.70
36450;DHT22;22475;51.390;7.180;2022-11-28T09:15:38;12.10;90.70
36450;DHT22;22475;51.390;7.180;2022-11-28T09:18:05;12.10;90.70
36450;DHT22;22475;51.390;7.180;2022-11-28T09:20:32;12.10;91.00
36450;DHT22;22475;51.390;7.180;2022-11-28T09:23:00;12.20;90.70
36450;DHT22;22475;51.390;7.180;2022-11-28T09:25:27;12.10;90.60
36450;DHT22;22475;51.390;7.180;2022-11-28T09:27:54;12.20;90.60
36450;DHT22;22475;51.390;7.180;2022-11-28T09:30:21;12.20;90.60
36450;DHT22;22475;51.390;7.180;2022-11-28T09:32:48;12.20;90.60
36450;DHT22;22475;51.390;7.180;2022-11-28T09:35:16;12.20;90.60
36450;DHT22;22475;51.390;7.180;2022-11-28T09:37:43;12.20;90.60
36450;DHT22;22475;51.390;7.180;2022-11-28T09:40:15;12.20;90.50
36450;DHT22;22475;51.390;7.180;2022-11-28T09:42:43;12.20;90.50
36450;DHT22;22475;51.390;7.180;2022-11-28T09:45:14;12.20;90.50
36450;DHT22;22475;51.390;7.180;2022-11-28T09:47:45;12.20;90.50
36450;DHT22;22475;51.390;7.180;2022-11-28T09:50:15;12.20;90.50
36450;DHT22;22475;51.390;7.180;2022-11-28T09:52:48;12.20;90.50
36450;DHT22;22475;51.390;7.180;2022-11-28T09:55:26;12.20;90.60
36450;DHT22;22475;51.390;7.180;2022-11-28T09:57:55;12.20;90.60
36450;DHT22;22475;51.390;7.180;2022-11-28T10:00:25;12.30;90.60
36450;DHT22;22475;51.390;7.180;2022-11-28T10:03:09;12.20;90.60
36450;DHT22;22475;51.390;7.180;2022-11-28T10:05:42;12.20;90.60
36450;DHT22;22475;51.390;7.180;2022-11-28T10:08:20;12.20;90.60
36450;DHT22;22475;51.390;7.180;2022-11-28T10:10:57;12.20;90.60
36450;DHT22;22475;51.390;7.180;2022-11-28T10:13:34;12.20;90.60
36450;DHT22;22475;51.390;7.180;2022-11-28T10:16:07;12.20;90.60
36450;DHT22;22475;51.390;7.180;2022-11-28T10:18:39;12.20;90.60
36450;DHT22;22475;51.390;7.180;2022-11-28T10:21:23;12.20;90.70
36450;DHT22;22475;51.390;7.180;2022-11-28T10:23:55;12.20;90.60
36450;DHT22;22475;51.390;7.180;2022-11-28T10:26:30;12.20;90.50
36450;DHT22;22475;51.390;7.180;2022-11-28T10:29:03;12.20;90.50
36450;DHT22;22475;51.390;7.180;2022-11-28T10:31:34;12.20;90.50
36450;DHT22;22475;51.390;7.180;2022-11-28T10:34:06;12.20;90.50
36450;DHT22;22475;51.390;7.180;2022-11-28T10:36:46;12.20;90.60
36450;DHT22;22475;51.390;7.180;2022-11-28T10:39:16;12.20;90.70
36450;DHT22;22475;51.390;7.180;2022-11-28T10:41:48;12.20;90.60
36450;DHT22;22475;51.390;7.180;2022-11-28T10:44:52;12.20;90.70
36450;DHT22;22475;51.390;7.180;2022-11-28T10:50:28;12.10;90.60
36450;DHT22;22475;51.390;7.180;2022-11-28T10:52:59;12.10;90.60
36450;DHT22;22475;51.390;7.180;2022-11-28T10:55:35;12.10;90.70
36450;DHT22;22475;51.390;7.180;2022-11-28T10:58:15;12.10;90.80
36450;DHT22;22475;51.390;7.180;2022-11-28T11:00:44;12.10;90.90
36450;DHT22;22475;51.390;7.180;2022-11-28T11:03:17;12.10;90.90
36450;DHT22;22475;51.390;7.180;2022-11-28T11:05:44;12.20;90.90
36450;DHT22;22475;51.390;7.180;2022-11-28T11:08:16;12.20;90.90
36450;DHT22;22475;51.390;7.180;2022-11-28T11:10:46;12.20;90.90
36450;DHT22;22475;51.390;7.180;2022-11-28T11:13:17;12.20;90.90
36450;DHT22;22475;51.390;7.180;2022-11-28T11:15:45;12.20;90.90
36450;DHT22;22475;51.390;7.180;2022-11-28T11:18:24;12.30;91.00
36450;DHT22;22475;51.390;7.180;2022-11-28T11:20:51;12.20;91.00
36450;DHT22;22475;51.390;7.180;2022-11-28T11:23:30;12.30;90.90
36450;DHT22;22475;51.390;7.180;2022-11-28T11:25:57;12.30;90.90
36450;DHT22;22475;51.390;7.180;2022-11-28T11:31:32;12.30;91.00
36450;DHT22;22475;51.390;7.180;2022-11-28T11:34:05;12.30;91.00
36450;DHT22;22475;51.390;7.180;2022-11-28T11:36:34;12.40;91.00
36450;DHT22;22475;51.390;7.180;2022-11-28T11:39:09;12.40;91.00
36450;DHT22;22475;51.390;7.180;2022-11-28T11:41:42;12.40;91.00
36450;DHT22;22475;51.390;7.180;2022-11-28T11:44:29;12.30;90.90
36450;DHT22;22475;51.390;7.180;2022-11-28T11:47:00;12.40;91.00
36450;DHT22;22475;51.390;7.180;2022-11-28T11:49:30;12.40;90.90
36450;DHT22;22475;51.390;7.180;2022-11-28T11:52:00;12.30;91.00
36450;DHT22;22475;51.390;7.180;2022-11-28T11:54:27;12.30;91.00
36450;DHT22;22475;51.390;7.180;2022-11-28T11:56:56;12.30;91.00
36450;DHT22;22475;51.390;7.180;2022-11-28T11:59:27;12.30;91.10
36450;DHT22;22475;51.390;7.180;2022-11-28T12:01:59;12.30;91.10
36450;DHT22;22475;51.390;7.180;2022-11-28T12:04:30;12.30;91.00
36450;DHT22;22475;51.390;7.180;2022-11-28T12:07:01;12.30;91.00
36450;DHT22;22475;51.390;7.180;2022-11-28T12:09:35;12.30;91.10
36450;DHT22;22475;51.390;7.180;2022-11-28T12:12:11;12.30;91.10
36450;DHT22;22475;51.390;7.180;2022-11-28T12:14:40;12.30;91.10
36450;DHT22;22475;51.390;7.180;2022-11-28T12:17:19;12.30;91.10
36450;DHT22;22475;51.390;7.180;2022-11-28T12:19:57;12.30;91.10
36450;DHT22;22475;51.390;7.180;2022-11-28T12:22:33;12.30;91.20
36450;DHT22;22475;51.390;7.180;2022-11-28T12:25:13;12.30;91.20
36450;DHT22;22475;51.390;7.180;2022-11-28T12:27:55;12.30;91.20
36450;DHT22;22475;51.390;7.180;2022-11-28T12:30:34;12.30;91.20
36450;DHT22;22475;51.390;7.180;2022-11-28T12:33:13;12.30;91.20
36450;DHT22;22475;51.390;7.180;2022-11-28T12:35:46;12.30;91.10
36450;DHT22;22475;51.390;7.180;2022-11-28T12:38:25;12.30;91.20
36450;DHT22;22475;51.390;7.180;2022-11-28T12:41:08;12.30;91.20
36450;DHT22;22475;51.390;7.180;2022-11-28T12:43:49;12.30;91.30
36450;DHT22;22475;51.390;7.180;2022-11-28T12:46:25;12.30;91.30
36450;DHT22;22475;51.390;7.180;2022-11-28T12:49:03;12.30;91.30
36450;DHT22;22475;51.390;7.180;2022-11-28T12:51:39;12.40;91.30
36450;DHT22;22475;51.390;7.180;2022-11-28T12:54:21;12.40;91.30
36450;DHT22;22475;51.390;7.180;2022-11-28T12:56:57;12.40;91.20
36450;DHT22;22475;51.390;7.180;2022-11-28T12:59:29;12.40;91.20
36450;DHT22;22475;51.390;7.180;2022-11-28T13:02:17;12.40;91.30
36450;DHT22;22475;51.390;7.180;2022-11-28T13:05:02;12.30;91.30
36450;DHT22;22475;51.390;7.180;2022-11-28T13:07:39;12.30;91.30
36450;DHT22;22475;51.390;7.180;2022-11-28T13:10:14;12.40;91.40
36450;DHT22;22475;51.390;7.180;2022-11-28T13:12:46;12.40;91.40
36450;DHT22;22475;51.390;7.180;2022-11-28T13:15:20;12.40;91.40
36450;DHT22;22475;51.390;7.180;2022-11-28T13:17:57;12.40;91.40
36450;DHT22;22475;51.390;7.180;2022-11-28T13:20:29;12.40;91.40
36450;DHT22;22475;51.390;7.180;2022-11-28T13:23:05;12.40;91.40
36450;DHT22;22475;51.390;7.180;2022-11-28T13:25:39;12.40;91.40
36450;DHT22;22475;51.390;7.180;2022-11-28T13:28:12;12.40;91.40
36450;DHT22;22475;51.390;7.180;2022-11-28T13:30:44;12.40;91.40
36450;DHT22;22475;51.390;7.180;2022-11-28T13:33:27;12.40;91.40
36450;DHT22;22475;51.390;7.180;2022-11-28T13:35:57;12.40;91.40
36450;DHT22;22475;51.390;7.180;2022-11-28T13:38:29;12.40;91.40
36450;DHT22;22475;51.390;7.180;2022-11-28T13:41:02;12.40;91.40
36450;DHT22;22475;51.390;7.180;2022-11-28T13:43:38;12.40;91.40
36450;DHT22;22475;51.390;7.180;2022-11-28T13:46:08;12.40;91.50
36450;DHT22;22475;51.390;7.180;2022-11-28T13:49:08;12.50;91.50
36450;DHT22;22475;51.390;7.180;2022-11-28T13:51:35;12.50;91.50
36450;DHT22;22475;51.390;7.180;2022-11-28T13:57:28;12.50;91.50
36450;DHT22;22475;51.390;7.180;2022-11-28T14:00:03;12.50;91.40
36450;DHT22;22475;51.390;7.180;2022-11-28T14:02:35;12.40;91.40
36450;DHT22;22475;51.390;7.180;2022-11-28T14:05:23;12.50;91.50
36450;DHT22;22475;51.390;7.180;2022-11-28T14:07:51;12.40;91.40
36450;DHT22;22475;51.390;7.180;2022-11-28T14:10:32;12.40;91.50
36450;DHT22;22475;51.390;7.180;2022-11-28T14:13:14;12.40;91.60
36450;DHT22;22475;51.390;7.180;2022-11-28T14:15:56;12.40;91.60
36450;DHT22;22475;51.390;7.180;2022-11-28T14:18:35;12.40;91.60
36450;DHT22;22475;51.390;7.180;2022-11-28T14:21:17;12.40;91.60
36450;DHT22;22475;51.390;7.180;2022-11-28T14:23:52;12.40;91.60
36450;DHT22;22475;51.390;7.180;2022-11-28T14:26:28;12.30;91.50
36450;DHT22;22475;51.390;7.180;2022-11-28T14:28:57;12.30;91.50
36450;DHT22;22475;51.390;7.180;2022-11-28T14:31:27;12.20;91.50
36450;DHT22;22475;51.390;7.180;2022-11-28T14:33:59;12.10;91.50
36450;DHT22;22475;51.390;7.180;2022-11-28T14:36:29;12.10;91.60
36450;DHT22;22475;51.390;7.180;2022-11-28T14:39:04;12.00;91.70
36450;DHT22;22475;51.390;7.180;2022-11-28T14:44:46;11.80;91.90
36450;DHT22;22475;51.390;7.180;2022-11-28T14:47:16;11.80;92.00
36450;DHT22;22475;51.390;7.180;2022-11-28T14:49:43;11.80;92.10
36450;DHT22;22475;51.390;7.180;2022-11-28T14:52:20;11.70;92.50
36450;DHT22;22475;51.390;7.180;2022-11-28T14:54:49;11.70;92.20
36450;DHT22;22475;51.390;7.180;2022-11-28T14:57:18;11.70;92.30
36450;DHT22;22475;51.390;7.180;2022-11-28T14:59:46;11.60;92.40
36450;DHT22;22475;51.390;7.180;2022-11-28T15:02:33;11.70;92.60
36450;DHT22;22475;51.390;7.180;2022-11-28T15:05:12;11.70;92.60
36450;DHT22;22475;51.390;7.180;2022-11-28T15:07:53;11.70;92.60
36450;DHT22;22475;51.390;7.180;2022-11-28T15:10:27;11.70;92.70
36450;DHT22;22475;51.390;7.180;2022-11-28T15:13:01;11.80;92.70
36450;DHT22;22475;51.390;7.180;2022-11-28T15:15:32;11.80;92.70
36450;DHT22;22475;51.390;7.180;2022-11-28T15:17:59;11.80;92.70
36450;DHT22;22475;51.390;7.180;2022-11-28T15:20:30;11.80;92.70
36450;DHT22;22475;51.390;7.180;2022-11-28T15:23:00;11.80;92.70
36450;DHT22;22475;51.390;7.180;2022-11-28T15:25:28;11.90;92.70
36450;DHT22;22475;51.390;7.180;2022-11-28T15:28:11;11.90;92.70
36450;DHT22;22475;51.390;7.180;2022-11-28T15:30:42;11.90;92.70
36450;DHT22;22475;51.390;7.180;2022-11-28T15:33:11;11.80;92.60
36450;DHT22;22475;51.390;7.180;2022-11-28T15:35:38;11.80;92.60
36450;DHT22;22475;51.390;7.180;2022-11-28T15:38:13;11.70;92.60
36450;DHT22;22475;51.390;7.180;2022-11-28T15:40:48;11.70;92.70
36450;DHT22;22475;51.390;7.180;2022-11-28T15:43:16;11.70;92.70
36450;DHT22;22475;51.390;7.180;2022-11-28T15:45:47;11.70;92.70
36450;DHT22;22475;51.390;7.180;2022-11-28T15:48:32;11.60;92.80
36450;DHT22;22475;51.390;7.180;2022-11-28T15:51:00;11.60;92.80
36450;DHT22;22475;51.390;7.180;2022-11-28T15:53:28;11.60;92.80
36450;DHT22;22475;51.390;7.180;2022-11-28T15:56:08;11.60;92.90
36450;DHT22;22475;51.390;7.180;2022-11-28T15:58:37;11.50;93.00
36450;DHT22;22475;51.390;7.180;2022-11-28T16:01:08;11.50;93.00
36450;DHT22;22475;51.390;7.180;2022-11-28T16:03:44;11.50;93.10
36450;DHT22;22475;51.390;7.180;2022-11-28T16:06:12;11.50;93.10
36450;DHT22;22475;51.390;7.180;2022-11-28T16:08:47;11.40;93.10